createdAt,value
2023-05-17T00:02:19.418Z,7.09
2023-05-17T00:04:46.143Z,7.07
2023-05-17T00:07:12.611Z,7.05
2023-05-17T00:09:39.316Z,7.03
2023-05-17T00:12:05.887Z,7.00
2023-05-17T00:14:32.640Z,6.96
2023-05-17T00:16:59.077Z,6.94
2023-05-17T00:19:25.646Z,6.96
2023-05-17T00:21:52.537Z,6.99
2023-05-17T00:24:19.321Z,7.06
2023-05-17T00:26:46.252Z,7.13
2023-05-17T00:29:12.710Z,7.18
2023-05-17T00:31:39.218Z,7.23
2023-05-17T00:34:05.895Z,7.25
2023-05-17T00:36:32.327Z,7.22
2023-05-17T00:38:58.774Z,7.19
2023-05-17T00:41:25.338Z,7.11
2023-05-17T00:43:51.931Z,7.06
2023-05-17T00:46:18.395Z,7.01
2023-05-17T00:48:44.937Z,6.94
2023-05-17T00:51:12.715Z,6.89
2023-05-17T00:53:39.472Z,6.85
2023-05-17T00:56:06.482Z,6.80
2023-05-17T00:58:33.833Z,6.80
2023-05-17T01:01:01.386Z,6.80
2023-05-17T01:03:28.189Z,6.82
2023-05-17T01:05:55.623Z,6.87
2023-05-17T01:08:22.057Z,6.91
2023-05-17T01:11:03.853Z,6.96
2023-05-17T01:13:43.791Z,7.02
2023-05-17T01:16:25.692Z,7.06
2023-05-17T01:19:03.120Z,7.10
2023-05-17T01:22:07.219Z,7.14
2023-05-17T01:24:51.097Z,7.19
2023-05-17T01:27:21.154Z,7.30
2023-05-17T01:29:49.520Z,7.38
2023-05-17T01:32:16.674Z,7.40
2023-05-17T01:34:43.146Z,7.46
2023-05-17T01:37:09.920Z,7.50
2023-05-17T01:39:36.471Z,7.54
2023-05-17T01:42:11.645Z,7.57
2023-05-17T01:44:49.427Z,7.61
2023-05-17T01:47:24.372Z,7.63
2023-05-17T01:49:54.185Z,7.63
2023-05-17T01:52:35.323Z,7.65
2023-05-17T01:55:29.972Z,7.65
2023-05-17T01:57:57.367Z,7.68
2023-05-17T02:00:27.773Z,7.72
2023-05-17T02:02:54.477Z,7.74
2023-05-17T02:05:20.962Z,7.79
2023-05-17T02:07:47.450Z,7.83
2023-05-17T02:10:14.034Z,7.87
2023-05-17T02:12:41.082Z,7.93
2023-05-17T02:15:11.016Z,7.96
2023-05-17T02:17:39.441Z,7.99
2023-05-17T02:20:08.174Z,8.03
2023-05-17T02:22:35.007Z,8.06
2023-05-17T02:25:02.070Z,8.10
2023-05-17T02:27:28.576Z,8.13
2023-05-17T02:29:54.997Z,8.15
2023-05-17T02:32:21.719Z,8.16
2023-05-17T02:34:48.553Z,8.17
2023-05-17T02:37:15.135Z,8.20
2023-05-17T02:39:41.613Z,8.21
2023-05-17T02:42:08.120Z,8.23
2023-05-17T02:44:34.585Z,8.28
2023-05-17T02:47:01.061Z,8.29
2023-05-17T02:49:27.635Z,8.32
2023-05-17T02:51:54.076Z,8.34
2023-05-17T02:54:20.569Z,8.35
2023-05-17T02:56:47.218Z,8.35
2023-05-17T02:59:13.730Z,8.38
2023-05-17T03:01:40.306Z,8.40
2023-05-17T03:04:06.753Z,8.46
2023-05-17T03:06:34.616Z,8.46
2023-05-17T03:09:01.053Z,8.48
2023-05-17T03:11:27.458Z,8.47
2023-05-17T03:13:53.896Z,8.48
2023-05-17T03:16:20.697Z,8.49
2023-05-17T03:18:47.322Z,8.46
2023-05-17T03:21:13.844Z,8.42
2023-05-17T03:23:40.693Z,8.38
2023-05-17T03:26:07.195Z,8.33
2023-05-17T03:28:33.767Z,8.25
2023-05-17T03:31:00.407Z,8.20
2023-05-17T03:33:26.962Z,8.15
2023-05-17T03:35:53.531Z,8.13
2023-05-17T03:38:20.022Z,8.13
2023-05-17T03:40:47.608Z,8.10
2023-05-17T03:43:14.179Z,8.06
2023-05-17T03:45:41.200Z,8.04
2023-05-17T03:48:07.713Z,7.98
2023-05-17T03:50:34.276Z,7.94
2023-05-17T03:53:00.821Z,7.88
2023-05-17T03:55:27.496Z,7.83
2023-05-17T03:57:54.060Z,7.80
2023-05-17T04:00:21.991Z,7.79
2023-05-17T04:02:49.074Z,7.77
2023-05-17T04:05:16.118Z,7.74
2023-05-17T04:07:43.068Z,7.70
2023-05-17T04:10:10.731Z,7.71
2023-05-17T04:12:37.600Z,7.71
2023-05-17T04:15:04.950Z,7.69
2023-05-17T04:17:31.477Z,7.73
2023-05-17T04:19:58.006Z,7.83
2023-05-17T04:22:24.506Z,7.86
2023-05-17T04:24:51.244Z,8.38
2023-05-17T04:27:17.712Z,9.05
2023-05-17T04:29:44.294Z,9.97
2023-05-17T04:32:11.011Z,11.00
2023-05-17T04:34:37.689Z,11.94
2023-05-17T04:37:04.454Z,12.52
2023-05-17T04:39:31.425Z,13.10
2023-05-17T04:41:58.043Z,13.61
2023-05-17T04:44:24.740Z,13.98
2023-05-17T04:46:52.254Z,14.50
2023-05-17T04:49:18.975Z,15.11
2023-05-17T04:51:45.542Z,15.83
2023-05-17T04:54:12.095Z,16.38
2023-05-17T04:56:38.576Z,16.98
2023-05-17T04:59:05.013Z,17.62
2023-05-17T05:01:31.497Z,18.15
2023-05-17T05:03:58.691Z,18.72
2023-05-17T05:06:25.309Z,18.93
2023-05-17T05:08:52.487Z,19.10
2023-05-17T05:11:18.987Z,19.53
2023-05-17T05:13:45.502Z,19.47
2023-05-17T05:16:12.170Z,19.53
2023-05-17T05:18:39.076Z,20.00
2023-05-17T05:21:05.839Z,20.52
2023-05-17T05:23:32.304Z,21.31
2023-05-17T05:25:58.715Z,21.63
2023-05-17T05:28:25.284Z,22.31
2023-05-17T05:30:58.223Z,22.66
2023-05-17T05:33:24.917Z,22.55
2023-05-17T05:35:51.492Z,22.85
2023-05-17T05:38:18.242Z,22.82
2023-05-17T05:40:47.048Z,22.35
2023-05-17T05:43:13.724Z,21.23
2023-05-17T05:45:45.977Z,21.09
2023-05-17T05:48:15.433Z,22.40
2023-05-17T05:50:45.394Z,22.69
2023-05-17T05:53:18.890Z,22.49
2023-05-17T05:55:46.589Z,22.45
2023-05-17T05:58:13.098Z,21.98
2023-05-17T06:00:39.627Z,20.77
2023-05-17T06:03:06.510Z,21.58
2023-05-17T06:05:33.219Z,22.31
2023-05-17T06:07:59.760Z,21.97
2023-05-17T06:10:26.447Z,20.11
2023-05-17T06:12:52.995Z,19.50
2023-05-17T06:15:19.510Z,21.05
2023-05-17T06:17:46.077Z,22.32
2023-05-17T06:20:13.608Z,22.76
2023-05-17T06:22:40.098Z,22.43
2023-05-17T06:25:06.730Z,22.08
2023-05-17T06:27:33.753Z,22.26
2023-05-17T06:30:00.766Z,22.43
2023-05-17T06:32:27.417Z,22.23
2023-05-17T06:34:53.956Z,21.77
2023-05-17T06:37:20.589Z,21.68
2023-05-17T06:39:55.862Z,22.22
2023-05-17T06:42:26.273Z,19.59
2023-05-17T06:44:52.804Z,18.82
2023-05-17T06:47:19.269Z,19.51
2023-05-17T06:49:45.675Z,18.86
2023-05-17T06:52:12.187Z,17.83
2023-05-17T06:54:38.685Z,16.88
2023-05-17T06:57:05.600Z,17.60
2023-05-17T06:59:32.100Z,19.18
2023-05-17T07:02:00.245Z,19.04
2023-05-17T07:04:27.339Z,17.70
2023-05-17T07:06:54.104Z,16.12
2023-05-17T07:09:21.637Z,15.89
2023-05-17T07:11:48.700Z,16.71
2023-05-17T07:14:15.487Z,16.14
2023-05-17T07:16:42.156Z,15.52
2023-05-17T07:19:08.694Z,16.36
2023-05-17T07:21:35.834Z,17.07
2023-05-17T07:24:02.574Z,18.30
2023-05-17T07:26:29.052Z,17.63
2023-05-17T07:28:55.699Z,17.37
2023-05-17T07:31:22.254Z,18.35
2023-05-17T07:33:49.066Z,19.35
2023-05-17T07:36:15.738Z,19.79
2023-05-17T07:38:42.313Z,18.89
2023-05-17T07:41:09.902Z,17.46
2023-05-17T07:43:37.763Z,16.74
2023-05-17T07:46:05.706Z,17.51
2023-05-17T07:48:32.225Z,18.73
2023-05-17T07:50:58.720Z,19.83
2023-05-17T07:53:25.358Z,18.91
2023-05-17T07:55:52.159Z,18.48
2023-05-17T07:58:18.957Z,17.72
2023-05-17T08:00:45.502Z,16.87
2023-05-17T08:03:14.512Z,16.60
2023-05-17T08:05:42.230Z,16.48
2023-05-17T08:08:08.784Z,17.61
2023-05-17T08:10:37.898Z,18.06
2023-05-17T08:13:06.172Z,17.33
2023-05-17T08:15:32.694Z,17.45
2023-05-17T08:18:04.929Z,17.86
2023-05-17T08:20:31.674Z,18.02
2023-05-17T08:22:58.198Z,16.91
2023-05-17T08:25:24.833Z,16.43
2023-05-17T08:27:51.705Z,17.22
2023-05-17T08:30:28.557Z,16.96
2023-05-17T08:32:56.707Z,16.81
2023-05-17T08:35:24.479Z,16.38
2023-05-17T08:37:52.789Z,16.03
2023-05-17T08:40:21.818Z,16.03
2023-05-17T08:42:50.615Z,16.29
2023-05-17T08:45:18.877Z,16.50
2023-05-17T08:47:46.582Z,15.67
2023-05-17T08:50:14.221Z,15.05
2023-05-17T08:52:46.333Z,15.04
2023-05-17T08:55:16.390Z,15.00
2023-05-17T08:57:43.572Z,15.06
2023-05-17T09:00:15.008Z,15.11
2023-05-17T09:02:43.131Z,15.43
2023-05-17T09:05:11.060Z,15.14
2023-05-17T09:07:37.801Z,14.61
2023-05-17T09:10:05.789Z,14.51
2023-05-17T09:12:36.216Z,14.12
2023-05-17T09:15:19.925Z,14.29
2023-05-17T09:17:54.327Z,14.69
2023-05-17T09:20:35.175Z,15.01
2023-05-17T09:23:02.158Z,14.99
2023-05-17T09:25:29.730Z,15.28
2023-05-17T09:28:01.010Z,15.34
2023-05-17T09:30:32.393Z,15.39
2023-05-17T09:33:07.366Z,15.97
2023-05-17T09:35:35.771Z,15.99
2023-05-17T09:38:07.758Z,15.68
2023-05-17T09:40:38.148Z,15.44
2023-05-17T09:43:04.986Z,15.47
2023-05-17T09:45:35.944Z,15.38
2023-05-17T09:48:11.839Z,15.07
2023-05-17T09:50:44.233Z,14.82
2023-05-17T09:53:31.079Z,14.87
2023-05-17T09:56:00.901Z,15.44
2023-05-17T09:58:29.131Z,15.59
2023-05-17T10:01:00.855Z,16.00
2023-05-17T10:03:33.400Z,15.29
2023-05-17T10:06:02.303Z,14.67
2023-05-17T10:08:30.113Z,14.19
2023-05-17T10:11:00.734Z,13.96
2023-05-17T10:13:40.702Z,13.93
2023-05-17T10:16:07.453Z,14.09
2023-05-17T10:18:34.607Z,14.43
2023-05-17T10:21:02.152Z,14.55
2023-05-17T10:23:31.494Z,14.18
2023-05-17T10:25:59.645Z,13.98
2023-05-17T10:28:27.300Z,14.19
2023-05-17T10:30:54.839Z,14.87
2023-05-17T10:33:22.871Z,15.23
2023-05-17T10:35:50.266Z,14.83
2023-05-17T10:38:19.145Z,14.88
2023-05-17T10:40:48.029Z,14.83
2023-05-17T10:43:15.360Z,14.45
2023-05-17T10:45:42.666Z,14.84
2023-05-17T10:48:10.208Z,15.11
2023-05-17T10:50:47.424Z,15.44
2023-05-17T10:53:20.724Z,15.09
2023-05-17T10:55:47.502Z,15.08
2023-05-17T10:58:17.877Z,15.16
2023-05-17T11:00:49.849Z,14.87
2023-05-17T11:03:18.767Z,14.64
2023-05-17T11:06:22.033Z,14.71
2023-05-17T11:09:06.718Z,14.97
2023-05-17T11:11:33.956Z,15.24
2023-05-17T11:14:04.751Z,15.52
2023-05-17T11:16:38.137Z,15.68
2023-05-17T11:19:12.052Z,15.10
2023-05-17T11:21:49.103Z,15.39
2023-05-17T11:24:25.161Z,15.50
2023-05-17T11:26:54.770Z,15.86
2023-05-17T11:29:22.417Z,15.93
2023-05-17T11:31:51.581Z,15.67
2023-05-17T11:34:18.645Z,15.62
2023-05-17T11:36:53.123Z,15.83
2023-05-17T11:39:22.006Z,15.84
2023-05-17T11:41:51.958Z,15.94
2023-05-17T11:44:38.756Z,15.70
2023-05-17T11:47:08.822Z,16.12
2023-05-17T11:49:38.356Z,16.29
2023-05-17T11:52:06.256Z,15.90
2023-05-17T11:54:33.478Z,16.09
2023-05-17T11:57:00.670Z,16.38
2023-05-17T11:59:27.372Z,16.49
2023-05-17T12:01:54.312Z,16.34
2023-05-17T12:04:27.811Z,16.39
2023-05-17T12:06:55.705Z,16.33
2023-05-17T12:09:23.052Z,16.30
2023-05-17T12:11:49.730Z,16.00
2023-05-17T12:14:20.386Z,15.38
2023-05-17T12:16:57.934Z,15.73
2023-05-17T12:19:29.810Z,16.12
2023-05-17T12:22:12.742Z,15.84
2023-05-17T12:24:43.199Z,16.18
2023-05-17T12:27:10.613Z,16.39
2023-05-17T12:29:38.211Z,16.48
2023-05-17T12:32:06.365Z,16.29
2023-05-17T12:34:33.016Z,15.67
2023-05-17T12:36:59.778Z,15.10
2023-05-17T12:39:26.486Z,14.74
2023-05-17T12:41:53.830Z,14.73
2023-05-17T12:44:21.033Z,14.86
2023-05-17T12:46:54.003Z,14.60
2023-05-17T12:49:23.838Z,15.29
2023-05-17T12:51:50.516Z,15.56
2023-05-17T12:54:27.353Z,15.52
2023-05-17T12:56:54.907Z,15.24
2023-05-17T12:59:25.024Z,14.59
2023-05-17T13:01:56.830Z,14.46
2023-05-17T13:04:37.744Z,14.72
2023-05-17T13:07:05.764Z,15.24
2023-05-17T13:09:33.518Z,15.31
2023-05-17T13:12:02.130Z,14.87
2023-05-17T13:14:38.181Z,15.56
2023-05-17T13:17:06.196Z,16.01
2023-05-17T13:19:33.028Z,16.23
2023-05-17T13:21:59.681Z,16.28
2023-05-17T13:24:27.870Z,16.12
2023-05-17T13:26:54.690Z,15.80
2023-05-17T13:29:35.351Z,15.32
2023-05-17T13:32:07.646Z,15.86
2023-05-17T13:34:34.323Z,15.66
2023-05-17T13:37:00.861Z,16.04
2023-05-17T13:39:27.394Z,16.27
2023-05-17T13:41:54.131Z,16.43
2023-05-17T13:44:20.859Z,16.48
2023-05-17T13:46:47.464Z,16.63
2023-05-17T13:49:14.104Z,16.64
2023-05-17T13:51:40.656Z,16.80
2023-05-17T13:54:07.372Z,16.49
2023-05-17T13:56:34.210Z,16.42
2023-05-17T13:59:00.914Z,15.75
2023-05-17T14:01:27.668Z,15.69
2023-05-17T14:03:55.275Z,15.54
2023-05-17T14:06:22.272Z,15.48
2023-05-17T14:08:49.606Z,15.51
2023-05-17T14:11:16.158Z,15.88
2023-05-17T14:13:43.081Z,16.29
2023-05-17T14:16:09.631Z,16.78
2023-05-17T14:18:37.290Z,16.48
2023-05-17T14:21:04.140Z,16.42
2023-05-17T14:23:30.866Z,16.38
2023-05-17T14:25:57.744Z,16.72
2023-05-17T14:28:24.414Z,16.13
2023-05-17T14:30:51.802Z,15.33
2023-05-17T14:33:18.460Z,15.19
2023-05-17T14:35:45.034Z,15.44
2023-05-17T14:38:11.566Z,15.85
2023-05-17T14:40:38.033Z,15.37
2023-05-17T14:43:05.069Z,14.96
2023-05-17T14:45:31.831Z,15.03
2023-05-17T14:47:58.373Z,14.95
2023-05-17T14:50:25.020Z,14.97
2023-05-17T14:52:51.477Z,15.49
2023-05-17T14:55:18.127Z,15.90
2023-05-17T14:57:44.691Z,16.44
2023-05-17T15:00:11.819Z,16.57
2023-05-17T15:02:38.504Z,15.31
2023-05-17T15:05:05.506Z,15.45
2023-05-17T15:07:33.150Z,15.95
2023-05-17T15:09:59.679Z,15.87
2023-05-17T15:12:26.129Z,15.68
2023-05-17T15:14:52.558Z,15.68
2023-05-17T15:17:18.979Z,15.39
2023-05-17T15:19:45.627Z,15.23
2023-05-17T15:22:12.443Z,15.94
2023-05-17T15:24:39.581Z,16.55
2023-05-17T15:27:06.837Z,16.50
2023-05-17T15:29:33.564Z,15.40
2023-05-17T15:32:00.234Z,15.11
2023-05-17T15:34:27.108Z,15.23
2023-05-17T15:36:55.744Z,15.92
2023-05-17T15:39:22.269Z,15.66
2023-05-17T15:41:48.714Z,15.86
2023-05-17T15:44:15.468Z,15.62
2023-05-17T15:46:41.907Z,15.42
2023-05-17T15:49:08.491Z,15.99
2023-05-17T15:51:35.031Z,16.27
2023-05-17T15:54:01.880Z,16.30
2023-05-17T15:56:28.688Z,16.49
2023-05-17T15:58:55.157Z,16.54
2023-05-17T16:01:21.700Z,16.19
2023-05-17T16:03:48.596Z,15.36
2023-05-17T16:06:15.279Z,15.46
2023-05-17T16:08:42.116Z,15.71
2023-05-17T16:11:09.862Z,15.19
2023-05-17T16:13:36.292Z,14.67
2023-05-17T16:16:02.879Z,15.04
2023-05-17T16:18:30.994Z,14.97
2023-05-17T16:21:03.760Z,15.03
2023-05-17T16:23:30.642Z,14.72
2023-05-17T16:25:58.026Z,14.91
2023-05-17T16:28:24.781Z,15.01
2023-05-17T16:30:51.945Z,14.62
2023-05-17T16:33:20.518Z,14.49
2023-05-17T16:35:48.675Z,14.35
2023-05-17T16:38:15.930Z,14.63
2023-05-17T16:40:42.555Z,15.09
2023-05-17T16:43:09.092Z,15.51
2023-05-17T16:45:35.555Z,15.11
2023-05-17T16:48:02.042Z,14.83
2023-05-17T16:50:28.840Z,14.76
2023-05-17T16:52:55.610Z,14.65
2023-05-17T16:55:22.164Z,14.26
2023-05-17T16:57:48.697Z,14.31
2023-05-17T17:00:15.607Z,14.53
2023-05-17T17:02:42.121Z,14.75
2023-05-17T17:05:10.242Z,14.87
2023-05-17T17:07:36.969Z,15.18
2023-05-17T17:10:03.788Z,14.91
2023-05-17T17:12:30.328Z,14.51
2023-05-17T17:14:57.397Z,14.46
2023-05-17T17:17:23.926Z,14.24
2023-05-17T17:19:50.369Z,13.98
2023-05-17T17:22:16.825Z,13.96
2023-05-17T17:24:44.409Z,13.61
2023-05-17T17:27:10.886Z,13.67
2023-05-17T17:29:37.446Z,13.72
2023-05-17T17:32:04.833Z,13.27
2023-05-17T17:34:31.345Z,12.94
2023-05-17T17:36:58.135Z,12.88
2023-05-17T17:39:24.701Z,12.69
2023-05-17T17:41:51.185Z,12.77
2023-05-17T17:44:17.635Z,12.63
2023-05-17T17:46:44.188Z,12.67
2023-05-17T17:49:10.835Z,12.56
2023-05-17T17:51:37.291Z,12.49
2023-05-17T17:54:05.494Z,12.47
2023-05-17T17:56:32.811Z,12.31
2023-05-17T17:58:59.794Z,12.13
2023-05-17T18:01:27.046Z,12.05
2023-05-17T18:03:53.808Z,11.98
2023-05-17T18:06:20.467Z,11.92
2023-05-17T18:08:46.897Z,11.82
2023-05-17T18:11:13.402Z,11.77
2023-05-17T18:13:39.880Z,11.57
2023-05-17T18:16:06.648Z,11.46
2023-05-17T18:18:33.513Z,11.43
2023-05-17T18:21:00.029Z,11.42
2023-05-17T18:23:26.498Z,11.35
2023-05-17T18:25:52.960Z,11.23
2023-05-17T18:28:29.685Z,11.20
2023-05-17T18:31:04.547Z,11.14
2023-05-17T18:33:31.485Z,11.11
2023-05-17T18:35:58.241Z,11.08
2023-05-17T18:38:24.669Z,10.90
2023-05-17T18:40:51.208Z,10.84
2023-05-17T18:43:17.726Z,10.75
2023-05-17T18:45:44.175Z,10.66
2023-05-17T18:48:10.797Z,10.59
2023-05-17T18:50:37.328Z,10.52
2023-05-17T18:53:04.048Z,10.46
2023-05-17T18:55:30.496Z,10.38
2023-05-17T18:57:57.005Z,10.33
2023-05-17T19:00:23.708Z,10.26
2023-05-17T19:02:50.200Z,10.16
2023-05-17T19:05:16.714Z,10.15
2023-05-17T19:07:43.476Z,10.12
2023-05-17T19:10:10.552Z,10.09
2023-05-17T19:12:37.031Z,10.02
2023-05-17T19:15:04.083Z,9.95
2023-05-17T19:17:30.764Z,9.83
2023-05-17T19:19:57.384Z,9.79
2023-05-17T19:22:23.852Z,9.76
2023-05-17T19:24:50.726Z,9.73
2023-05-17T19:27:19.626Z,9.62
2023-05-17T19:29:47.422Z,9.56
2023-05-17T19:32:14.064Z,9.48
2023-05-17T19:34:40.548Z,9.45
2023-05-17T19:37:07.160Z,9.38
2023-05-17T19:39:33.639Z,9.36
2023-05-17T19:42:00.334Z,9.26
2023-05-17T19:44:26.879Z,9.18
2023-05-17T19:46:53.836Z,9.13
2023-05-17T19:49:20.407Z,9.04
2023-05-17T19:51:48.087Z,8.99
2023-05-17T19:54:14.775Z,8.92
2023-05-17T19:56:41.366Z,8.87
2023-05-17T19:59:07.882Z,8.81
2023-05-17T20:01:34.441Z,8.75
2023-05-17T20:04:01.066Z,8.70
2023-05-17T20:06:27.924Z,8.68
2023-05-17T20:08:54.348Z,8.63
2023-05-17T20:11:21.597Z,8.54
2023-05-17T20:13:48.313Z,8.45
2023-05-17T20:16:14.877Z,8.39
2023-05-17T20:18:45.158Z,8.32
2023-05-17T20:21:15.073Z,8.30
2023-05-17T20:23:41.666Z,8.27
2023-05-17T20:26:08.107Z,8.26
2023-05-17T20:28:34.520Z,8.23
2023-05-17T20:31:01.051Z,8.15
2023-05-17T20:33:27.568Z,8.12
2023-05-17T20:35:54.168Z,8.12
2023-05-17T20:38:21.730Z,8.08
2023-05-17T20:40:48.343Z,8.00
2023-05-17T20:43:16.715Z,7.96
2023-05-17T20:45:43.724Z,7.86
2023-05-17T20:48:10.320Z,7.89
2023-05-17T20:50:37.036Z,7.78
2023-05-17T20:53:03.622Z,7.75
2023-05-17T20:55:30.099Z,7.72
2023-05-17T20:57:56.975Z,7.68
2023-05-17T21:00:24.595Z,7.62
2023-05-17T21:02:51.309Z,7.63
2023-05-17T21:05:17.797Z,7.65
2023-05-17T21:07:46.532Z,7.56
2023-05-17T21:10:13.208Z,7.37
2023-05-17T21:12:39.781Z,7.28
2023-05-17T21:15:16.364Z,7.20
2023-05-17T21:17:43.923Z,7.13
2023-05-17T21:20:11.102Z,7.05
2023-05-17T21:22:37.853Z,6.94
2023-05-17T21:25:05.162Z,6.90
2023-05-17T21:27:33.931Z,6.83
2023-05-17T21:30:01.094Z,6.78
2023-05-17T21:32:27.740Z,6.78
2023-05-17T21:34:54.583Z,6.72
2023-05-17T21:37:21.189Z,6.70
2023-05-17T21:39:47.648Z,6.61
2023-05-17T21:42:14.133Z,6.50
2023-05-17T21:44:40.805Z,6.46
2023-05-17T21:47:07.490Z,6.45
2023-05-17T21:49:34.395Z,6.36
2023-05-17T21:52:00.852Z,6.31
2023-05-17T21:54:27.335Z,6.27
2023-05-17T21:56:53.760Z,6.28
2023-05-17T21:59:20.325Z,6.31
2023-05-17T22:01:46.921Z,6.26
2023-05-17T22:04:13.481Z,6.18
2023-05-17T22:06:39.879Z,6.15
2023-05-17T22:09:09.853Z,6.15
2023-05-17T22:11:38.371Z,6.16
2023-05-17T22:14:08.001Z,6.14
2023-05-17T22:16:35.823Z,6.17
2023-05-17T22:19:03.676Z,6.22
2023-05-17T22:21:31.654Z,6.15
2023-05-17T22:23:58.839Z,6.06
2023-05-17T22:26:25.710Z,5.95
2023-05-17T22:28:52.543Z,6.01
2023-05-17T22:31:19.740Z,6.06
2023-05-17T22:33:46.511Z,6.08
2023-05-17T22:36:18.984Z,6.06
2023-05-17T22:38:46.253Z,6.05
2023-05-17T22:41:13.207Z,6.01
2023-05-17T22:43:40.790Z,5.95
2023-05-17T22:46:07.540Z,5.98
2023-05-17T22:48:37.305Z,5.99
2023-05-17T22:51:04.015Z,6.01
2023-05-17T22:53:31.070Z,6.00
2023-05-17T22:55:57.506Z,5.98
2023-05-17T22:58:23.944Z,5.97
2023-05-17T23:00:51.256Z,5.92
2023-05-17T23:03:19.047Z,5.83
2023-05-17T23:05:46.023Z,5.72
2023-05-17T23:08:15.278Z,5.62
2023-05-17T23:10:44.696Z,5.58
2023-05-17T23:13:12.126Z,5.52
2023-05-17T23:15:38.629Z,5.48
2023-05-17T23:18:05.644Z,5.44
2023-05-17T23:20:32.263Z,5.43
2023-05-17T23:22:59.491Z,5.40
2023-05-17T23:25:27.589Z,5.37
2023-05-17T23:27:54.519Z,5.33
2023-05-17T23:30:21.097Z,5.24
2023-05-17T23:32:51.343Z,5.24
2023-05-17T23:35:18.402Z,5.25
2023-05-17T23:37:45.152Z,5.25
2023-05-17T23:40:12.478Z,5.23
2023-05-17T23:42:40.413Z,5.20
2023-05-17T23:45:07.617Z,5.17
2023-05-17T23:47:34.088Z,5.15
2023-05-17T23:50:01.084Z,5.11
2023-05-17T23:52:29.972Z,5.09
2023-05-17T23:54:59.173Z,5.07
2023-05-17T23:57:25.809Z,5.02
2023-05-17T23:59:52.335Z,4.94
